メインページ
METAR-TAF:

METAR-TAF

空港 :

ウラジオストク, ロシア

ウラジオストク国際空港

緯度: 43-07N, 経度: 131-56E, 海抜: 184m

現時点の気象観測

当レポートは33分前の20:30(UTC)に作成
北/北西の風 10kt
気温 3°C
湿度 87%
気圧 1016 hPa
視程: 9000m
高度1300ftの雲は散在している
高度3300ftの千切れ雲あり, 積乱雲.
弱いにわか雨

METAR: UHWW 292030Z 33005MPS 9000 -SHRA SCT013 BKN033CB 03/01 Q1016 R25L/0///70 NOSIG RMK QFE761

時間: 07:03 (21:03 UTC)

予報

当レポートは1時間8分前の19:55(UTC)に作成
予報は29日の 21時(UTC)から 30日の 21時(UTC)まで有効
の風 12kt
視程10km以上
高度3000ftの雲は散在している
29日の 21時(UTC)から 30日の 10時(UTC)まで一時的に
の風 14kt、最大23ktの突風を伴う
視程: 3000m
高度700ftの雲は散在している
高度2000ftの千切れ雲あり, 積乱雲.
弱いにわか雪, 雨
30日の 10時(UTC)から 30日の 12時(UTC)まで徐々に
北/北西の風 6kt

TAF: UHWW 291955Z 2921/3021 35006MPS 9999 SCT030 TEMPO 2921/3010 35007G12MPS 3000 -SHSNRA SCT007 BKN020CB BECMG 3010/3012 33003MPS

4,000以上の空港の気象観測と天気予報(METAR報とTAF報)

利用可能な観測所は地図上に黄色い丸と赤い丸で示す。

丸の上にカーソルを重ねると観測所名を参照できる。

次にクリックすると気象観測と天気予報を参照できる。

マップの切り替え:黒色「×」印の緑ボタンをクリックして拡大、「-」印の緑ボタンをクリックして縮小、緑色の三角印をクリックして隣りの地図に切り替え


METAR-TAF: